Kezdőlap
METAR-TAF:

METAR-TAF

Repülőterek :

Kerteh, Malajzia

földrajzi szélesség: 04-32-15N, földrajzi hosszúság: 103-25-36E, magasság: 5 m

Jelenlegi meteorológiai megfigyelések

A jelentés 47 perccel ezelõtt készült, 19:00 UTC
Szélcsend
Hőmérséklet 26°C
Páratartalom 94%
Légköri nyomás 1008 hPa

METAR: WMKE 151900Z AUTO 00000KT //// // ////// 26/25 Q1008

Idő: 03:47 (19:47 UTC)

Előrejelzés

A jelentés 2 órával és 47 perccel ezelõtt készült, 17:00 UTC
Az előrejelzés 15-én 18 óra UTC és 16-én 18 óra UTC között érvényes
Különbözõ irányokból fújó szél 3 kt
Látótávolság 10 km, vagy több
Kevés felhő 1700 lábon
15-én 18 óra UTC és 15-én 20 óra UTC között ideiglenes
Látótávolság: 8000 m
Kevés felhő 1000 lábon
Kevés felhő 1400 lábon, Cumulonimbus.
zivatar, enyhe esõ,

TAF: WMKE 151700Z 1518/1618 VRB03KT 9999 FEW017 TEMPO 1518/1520 8000 -TSRA FEW010 FEW014CB

Meteorológiai megfigyelések és előrejelzések több, mint 4000 repülőtéren (METAR és TAF jelentéseket).

A térképen piros és sárga pontok jelzik az elérhető meteorológiai állomásokat.

Mozgassa az egeret a pont fölött, hogy megjelenjen az állomás neve.

Azután kattintson az időjárási megfigyelések és előrejelzések megtekintéséhez.

A térkép megváltoztatása: kattintson a fekete keresztel jelölt zöld gombra ráközelítéshez, a vonallal jelölt zöld gombra távolításhoz, vagy a zöld nyilakra a szomszédos térképek eléréséhez.


METAR-TAF: